sensor_id;sensor_type;location;lat;lon;timestamp;P1;durP1;ratioP1;P2;durP2;ratioP2
10082;SDS011;5080;48.528;8.078;2023-02-01T00:00:18;1.10;;;1.10;;
10082;SDS011;5080;48.528;8.078;2023-02-01T00:02:45;0.90;;;0.90;;
10082;SDS011;5080;48.528;8.078;2023-02-01T00:05:12;0.93;;;0.93;;
10082;SDS011;5080;48.528;8.078;2023-02-01T00:07:40;1.00;;;1.00;;
10082;SDS011;5080;48.528;8.078;2023-02-01T00:10:09;1.00;;;1.00;;
10082;SDS011;5080;48.528;8.078;2023-02-01T00:12:36;1.20;;;1.20;;
10082;SDS011;5080;48.528;8.078;2023-02-01T00:15:04;1.17;;;1.17;;
10082;SDS011;5080;48.528;8.078;2023-02-01T00:17:31;1.03;;;1.03;;
10082;SDS011;5080;48.528;8.078;2023-02-01T00:19:58;1.00;;;1.00;;
10082;SDS011;5080;48.528;8.078;2023-02-01T00:22:25;0.87;;;0.87;;
10082;SDS011;5080;48.528;8.078;2023-02-01T00:24:52;1.07;;;1.03;;
10082;SDS011;5080;48.528;8.078;2023-02-01T00:27:20;0.87;;;0.87;;
10082;SDS011;5080;48.528;8.078;2023-02-01T00:29:47;0.87;;;0.87;;
10082;SDS011;5080;48.528;8.078;2023-02-01T00:32:14;0.70;;;0.70;;
10082;SDS011;5080;48.528;8.078;2023-02-01T00:34:41;0.87;;;0.87;;
10082;SDS011;5080;48.528;8.078;2023-02-01T00:37:08;0.87;;;0.87;;
10082;SDS011;5080;48.528;8.078;2023-02-01T00:39:35;0.80;;;0.80;;
10082;SDS011;5080;48.528;8.078;2023-02-01T00:42:01;0.73;;;0.73;;
10082;SDS011;5080;48.528;8.078;2023-02-01T00:44:30;0.83;;;0.83;;
10082;SDS011;5080;48.528;8.078;2023-02-01T00:46:59;0.73;;;0.73;;
10082;SDS011;5080;48.528;8.078;2023-02-01T00:49:26;0.90;;;0.90;;
10082;SDS011;5080;48.528;8.078;2023-02-01T00:51:53;0.90;;;0.90;;
10082;SDS011;5080;48.528;8.078;2023-02-01T00:54:20;0.80;;;0.80;;
10082;SDS011;5080;48.528;8.078;2023-02-01T00:56:47;0.80;;;0.80;;
10082;SDS011;5080;48.528;8.078;2023-02-01T00:59:14;0.83;;;0.83;;
10082;SDS011;5080;48.528;8.078;2023-02-01T01:01:42;0.80;;;0.80;;
10082;SDS011;5080;48.528;8.078;2023-02-01T01:04:09;0.80;;;0.80;;
10082;SDS011;5080;48.528;8.078;2023-02-01T01:06:36;0.80;;;0.80;;
10082;SDS011;5080;48.528;8.078;2023-02-01T01:09:04;0.90;;;0.90;;
10082;SDS011;5080;48.528;8.078;2023-02-01T01:11:33;0.80;;;0.80;;
10082;SDS011;5080;48.528;8.078;2023-02-01T01:14:01;0.87;;;0.87;;
10082;SDS011;5080;48.528;8.078;2023-02-01T01:16:29;0.70;;;0.70;;
10082;SDS011;5080;48.528;8.078;2023-02-01T01:18:59;0.87;;;0.87;;
10082;SDS011;5080;48.528;8.078;2023-02-01T01:21:27;0.77;;;0.77;;
10082;SDS011;5080;48.528;8.078;2023-02-01T01:23:54;0.77;;;0.57;;
10082;SDS011;5080;48.528;8.078;2023-02-01T01:26:21;0.60;;;0.60;;
10082;SDS011;5080;48.528;8.078;2023-02-01T01:28:50;0.70;;;0.70;;
10082;SDS011;5080;48.528;8.078;2023-02-01T01:31:18;0.60;;;0.60;;
10082;SDS011;5080;48.528;8.078;2023-02-01T01:33:49;0.70;;;0.70;;
10082;SDS011;5080;48.528;8.078;2023-02-01T01:36:18;0.70;;;0.70;;
10082;SDS011;5080;48.528;8.078;2023-02-01T01:38:45;0.60;;;0.60;;
10082;SDS011;5080;48.528;8.078;2023-02-01T01:41:13;0.87;;;0.87;;
10082;SDS011;5080;48.528;8.078;2023-02-01T01:43:48;0.80;;;0.80;;
10082;SDS011;5080;48.528;8.078;2023-02-01T01:46:17;0.90;;;0.90;;
10082;SDS011;5080;48.528;8.078;2023-02-01T01:48:45;0.63;;;0.63;;
10082;SDS011;5080;48.528;8.078;2023-02-01T01:51:18;0.60;;;0.60;;
10082;SDS011;5080;48.528;8.078;2023-02-01T01:53:51;0.70;;;0.70;;
10082;SDS011;5080;48.528;8.078;2023-02-01T01:56:24;0.70;;;0.70;;
10082;SDS011;5080;48.528;8.078;2023-02-01T01:58:53;0.80;;;0.80;;
10082;SDS011;5080;48.528;8.078;2023-02-01T02:01:21;0.70;;;0.70;;
10082;SDS011;5080;48.528;8.078;2023-02-01T02:03:49;0.70;;;0.70;;
10082;SDS011;5080;48.528;8.078;2023-02-01T02:06:22;0.57;;;0.57;;
10082;SDS011;5080;48.528;8.078;2023-02-01T02:08:57;0.43;;;0.43;;
10082;SDS011;5080;48.528;8.078;2023-02-01T02:11:24;0.67;;;0.67;;
10082;SDS011;5080;48.528;8.078;2023-02-01T02:13:51;0.70;;;0.70;;
10082;SDS011;5080;48.528;8.078;2023-02-01T02:16:25;0.70;;;0.70;;
10082;SDS011;5080;48.528;8.078;2023-02-01T02:22:23;0.73;;;0.73;;
10082;SDS011;5080;48.528;8.078;2023-02-01T02:25:26;0.60;;;0.60;;
10082;SDS011;5080;48.528;8.078;2023-02-01T02:28:09;0.77;;;0.77;;
10082;SDS011;5080;48.528;8.078;2023-02-01T02:31:08;0.67;;;0.67;;
10082;SDS011;5080;48.528;8.078;2023-02-01T02:34:03;0.70;;;0.70;;
10082;SDS011;5080;48.528;8.078;2023-02-01T02:36:40;0.60;;;0.60;;
10082;SDS011;5080;48.528;8.078;2023-02-01T02:39:16;0.60;;;0.60;;
10082;SDS011;5080;48.528;8.078;2023-02-01T02:41:50;0.70;;;0.70;;
10082;SDS011;5080;48.528;8.078;2023-02-01T02:44:45;0.67;;;0.67;;
10082;SDS011;5080;48.528;8.078;2023-02-01T02:47:33;0.80;;;0.80;;
10082;SDS011;5080;48.528;8.078;2023-02-01T02:50:09;0.40;;;0.40;;
10082;SDS011;5080;48.528;8.078;2023-02-01T02:53:00;0.77;;;0.77;;
10082;SDS011;5080;48.528;8.078;2023-02-01T02:55:47;0.50;;;0.50;;
10082;SDS011;5080;48.528;8.078;2023-02-01T02:58:17;0.50;;;0.50;;
10082;SDS011;5080;48.528;8.078;2023-02-01T03:01:03;0.60;;;0.60;;
10082;SDS011;5080;48.528;8.078;2023-02-01T03:03:48;0.60;;;0.60;;
10082;SDS011;5080;48.528;8.078;2023-02-01T03:06:34;0.60;;;0.60;;
10082;SDS011;5080;48.528;8.078;2023-02-01T03:09:04;0.40;;;0.40;;
10082;SDS011;5080;48.528;8.078;2023-02-01T03:11:35;0.50;;;0.50;;
10082;SDS011;5080;48.528;8.078;2023-02-01T03:14:21;0.43;;;0.43;;
10082;SDS011;5080;48.528;8.078;2023-02-01T03:16:52;0.40;;;0.40;;
10082;SDS011;5080;48.528;8.078;2023-02-01T03:19:23;0.50;;;0.50;;
10082;SDS011;5080;48.528;8.078;2023-02-01T03:21:57;0.70;;;0.70;;
10082;SDS011;5080;48.528;8.078;2023-02-01T03:24:28;0.53;;;0.53;;
10082;SDS011;5080;48.528;8.078;2023-02-01T03:27:01;0.60;;;0.60;;
10082;SDS011;5080;48.528;8.078;2023-02-01T03:29:33;0.40;;;0.40;;
10082;SDS011;5080;48.528;8.078;2023-02-01T03:32:04;0.57;;;0.57;;
10082;SDS011;5080;48.528;8.078;2023-02-01T03:34:31;0.50;;;0.50;;
10082;SDS011;5080;48.528;8.078;2023-02-01T03:37:00;0.50;;;0.50;;
10082;SDS011;5080;48.528;8.078;2023-02-01T03:39:31;0.60;;;0.60;;
10082;SDS011;5080;48.528;8.078;2023-02-01T03:42:03;0.33;;;0.33;;
10082;SDS011;5080;48.528;8.078;2023-02-01T03:44:34;0.50;;;0.50;;
10082;SDS011;5080;48.528;8.078;2023-02-01T03:47:05;0.60;;;0.60;;
10082;SDS011;5080;48.528;8.078;2023-02-01T03:49:36;0.50;;;0.50;;
10082;SDS011;5080;48.528;8.078;2023-02-01T03:52:08;0.70;;;0.70;;
10082;SDS011;5080;48.528;8.078;2023-02-01T03:54:39;0.60;;;0.60;;
10082;SDS011;5080;48.528;8.078;2023-02-01T03:57:08;0.60;;;0.60;;
10082;SDS011;5080;48.528;8.078;2023-02-01T03:59:38;0.40;;;0.40;;
10082;SDS011;5080;48.528;8.078;2023-02-01T04:02:06;0.47;;;0.47;;
10082;SDS011;5080;48.528;8.078;2023-02-01T04:04:33;0.43;;;0.43;;
10082;SDS011;5080;48.528;8.078;2023-02-01T04:07:00;0.70;;;0.70;;
10082;SDS011;5080;48.528;8.078;2023-02-01T04:09:28;0.57;;;0.57;;
10082;SDS011;5080;48.528;8.078;2023-02-01T04:11:55;0.40;;;0.40;;
10082;SDS011;5080;48.528;8.078;2023-02-01T04:14:22;0.63;;;0.63;;
10082;SDS011;5080;48.528;8.078;2023-02-01T04:16:49;0.37;;;0.37;;
10082;SDS011;5080;48.528;8.078;2023-02-01T04:19:16;0.40;;;0.40;;
10082;SDS011;5080;48.528;8.078;2023-02-01T04:21:42;1.60;;;0.60;;
10082;SDS011;5080;48.528;8.078;2023-02-01T04:24:10;0.50;;;0.50;;
10082;SDS011;5080;48.528;8.078;2023-02-01T04:26:38;0.70;;;0.70;;
10082;SDS011;5080;48.528;8.078;2023-02-01T04:29:05;0.50;;;0.50;;
10082;SDS011;5080;48.528;8.078;2023-02-01T04:31:32;0.43;;;0.43;;
10082;SDS011;5080;48.528;8.078;2023-02-01T04:34:01;0.70;;;0.70;;
10082;SDS011;5080;48.528;8.078;2023-02-01T04:36:28;0.67;;;0.67;;
10082;SDS011;5080;48.528;8.078;2023-02-01T04:38:54;0.50;;;0.50;;
10082;SDS011;5080;48.528;8.078;2023-02-01T04:41:21;0.63;;;0.63;;
10082;SDS011;5080;48.528;8.078;2023-02-01T04:43:49;0.60;;;0.60;;
10082;SDS011;5080;48.528;8.078;2023-02-01T04:46:17;0.57;;;0.57;;
10082;SDS011;5080;48.528;8.078;2023-02-01T04:48:44;0.60;;;0.60;;
10082;SDS011;5080;48.528;8.078;2023-02-01T04:51:11;0.33;;;0.33;;
10082;SDS011;5080;48.528;8.078;2023-02-01T04:53:40;0.50;;;0.50;;
10082;SDS011;5080;48.528;8.078;2023-02-01T04:56:07;0.77;;;0.77;;
10082;SDS011;5080;48.528;8.078;2023-02-01T04:58:34;0.63;;;0.63;;
10082;SDS011;5080;48.528;8.078;2023-02-01T05:01:03;0.40;;;0.40;;
10082;SDS011;5080;48.528;8.078;2023-02-01T05:03:30;0.40;;;0.40;;
10082;SDS011;5080;48.528;8.078;2023-02-01T05:05:57;0.50;;;0.50;;
10082;SDS011;5080;48.528;8.078;2023-02-01T05:08:24;0.50;;;0.50;;
10082;SDS011;5080;48.528;8.078;2023-02-01T05:10:52;0.50;;;0.50;;
10082;SDS011;5080;48.528;8.078;2023-02-01T05:13:18;0.47;;;0.47;;
10082;SDS011;5080;48.528;8.078;2023-02-01T05:16:05;0.33;;;0.33;;
10082;SDS011;5080;48.528;8.078;2023-02-01T05:18:32;0.30;;;0.30;;
10082;SDS011;5080;48.528;8.078;2023-02-01T05:20:59;0.50;;;0.50;;
10082;SDS011;5080;48.528;8.078;2023-02-01T05:23:26;0.50;;;0.50;;
10082;SDS011;5080;48.528;8.078;2023-02-01T05:25:57;0.40;;;0.40;;
10082;SDS011;5080;48.528;8.078;2023-02-01T05:28:24;0.50;;;0.50;;
10082;SDS011;5080;48.528;8.078;2023-02-01T05:30:51;0.40;;;0.40;;
10082;SDS011;5080;48.528;8.078;2023-02-01T05:33:20;0.47;;;0.47;;
10082;SDS011;5080;48.528;8.078;2023-02-01T05:35:46;0.50;;;0.50;;
10082;SDS011;5080;48.528;8.078;2023-02-01T05:38:15;0.50;;;0.50;;
10082;SDS011;5080;48.528;8.078;2023-02-01T05:40:42;0.50;;;0.50;;
10082;SDS011;5080;48.528;8.078;2023-02-01T05:43:14;0.57;;;0.57;;
10082;SDS011;5080;48.528;8.078;2023-02-01T05:45:42;0.40;;;0.40;;
10082;SDS011;5080;48.528;8.078;2023-02-01T05:48:08;0.40;;;0.40;;
10082;SDS011;5080;48.528;8.078;2023-02-01T05:50:37;0.50;;;0.50;;
10082;SDS011;5080;48.528;8.078;2023-02-01T05:53:03;0.47;;;0.47;;
10082;SDS011;5080;48.528;8.078;2023-02-01T05:55:31;0.50;;;0.50;;
10082;SDS011;5080;48.528;8.078;2023-02-01T05:57:58;0.70;;;0.70;;
10082;SDS011;5080;48.528;8.078;2023-02-01T06:00:25;0.50;;;0.50;;
10082;SDS011;5080;48.528;8.078;2023-02-01T06:02:52;0.50;;;0.50;;
10082;SDS011;5080;48.528;8.078;2023-02-01T06:05:19;0.47;;;0.47;;
10082;SDS011;5080;48.528;8.078;2023-02-01T06:07:47;0.43;;;0.43;;
10082;SDS011;5080;48.528;8.078;2023-02-01T06:10:15;0.60;;;0.60;;
10082;SDS011;5080;48.528;8.078;2023-02-01T06:12:42;0.68;;;0.68;;
10082;SDS011;5080;48.528;8.078;2023-02-01T06:15:09;0.73;;;0.73;;
10082;SDS011;5080;48.528;8.078;2023-02-01T06:17:36;0.40;;;0.40;;
10082;SDS011;5080;48.528;8.078;2023-02-01T06:20:05;0.40;;;0.40;;
10082;SDS011;5080;48.528;8.078;2023-02-01T06:22:32;0.47;;;0.47;;
10082;SDS011;5080;48.528;8.078;2023-02-01T06:25:03;0.70;;;0.70;;
10082;SDS011;5080;48.528;8.078;2023-02-01T06:27:32;0.60;;;0.60;;
10082;SDS011;5080;48.528;8.078;2023-02-01T06:29:59;0.43;;;0.43;;
10082;SDS011;5080;48.528;8.078;2023-02-01T06:32:27;0.57;;;0.57;;
10082;SDS011;5080;48.528;8.078;2023-02-01T06:34:54;0.63;;;0.63;;
10082;SDS011;5080;48.528;8.078;2023-02-01T06:37:21;0.70;;;0.70;;
10082;SDS011;5080;48.528;8.078;2023-02-01T06:39:49;0.90;;;0.90;;
10082;SDS011;5080;48.528;8.078;2023-02-01T06:42:18;0.70;;;0.70;;
10082;SDS011;5080;48.528;8.078;2023-02-01T06:44:44;0.90;;;0.90;;
10082;SDS011;5080;48.528;8.078;2023-02-01T06:47:11;0.50;;;0.50;;
10082;SDS011;5080;48.528;8.078;2023-02-01T06:49:38;0.60;;;0.60;;
10082;SDS011;5080;48.528;8.078;2023-02-01T06:52:05;0.60;;;0.60;;
10082;SDS011;5080;48.528;8.078;2023-02-01T06:54:32;0.70;;;0.70;;
10082;SDS011;5080;48.528;8.078;2023-02-01T06:56:59;0.60;;;0.60;;
10082;SDS011;5080;48.528;8.078;2023-02-01T06:59:27;0.60;;;0.60;;
10082;SDS011;5080;48.528;8.078;2023-02-01T07:01:54;0.67;;;0.67;;
10082;SDS011;5080;48.528;8.078;2023-02-01T07:04:21;0.63;;;0.63;;
10082;SDS011;5080;48.528;8.078;2023-02-01T07:06:48;0.70;;;0.70;;
10082;SDS011;5080;48.528;8.078;2023-02-01T07:09:15;0.53;;;0.53;;
10082;SDS011;5080;48.528;8.078;2023-02-01T07:11:41;0.60;;;0.60;;
10082;SDS011;5080;48.528;8.078;2023-02-01T07:14:09;0.70;;;0.70;;
10082;SDS011;5080;48.528;8.078;2023-02-01T07:16:37;0.70;;;0.70;;
10082;SDS011;5080;48.528;8.078;2023-02-01T07:19:04;0.70;;;0.70;;
10082;SDS011;5080;48.528;8.078;2023-02-01T07:21:31;0.70;;;0.70;;
10082;SDS011;5080;48.528;8.078;2023-02-01T07:23:58;0.83;;;0.83;;
10082;SDS011;5080;48.528;8.078;2023-02-01T07:26:25;0.63;;;0.63;;
10082;SDS011;5080;48.528;8.078;2023-02-01T07:28:52;0.70;;;0.70;;
10082;SDS011;5080;48.528;8.078;2023-02-01T07:31:19;0.53;;;0.53;;
10082;SDS011;5080;48.528;8.078;2023-02-01T07:33:48;0.43;;;0.43;;
10082;SDS011;5080;48.528;8.078;2023-02-01T07:36:17;0.50;;;0.50;;
10082;SDS011;5080;48.528;8.078;2023-02-01T07:38:45;0.70;;;0.70;;
10082;SDS011;5080;48.528;8.078;2023-02-01T07:41:13;0.70;;;0.70;;
10082;SDS011;5080;48.528;8.078;2023-02-01T07:43:40;0.70;;;0.70;;
10082;SDS011;5080;48.528;8.078;2023-02-01T07:46:07;0.87;;;0.87;;
10082;SDS011;5080;48.528;8.078;2023-02-01T07:48:36;0.60;;;0.60;;
10082;SDS011;5080;48.528;8.078;2023-02-01T07:51:05;0.70;;;0.70;;
10082;SDS011;5080;48.528;8.078;2023-02-01T07:53:34;0.70;;;0.70;;
10082;SDS011;5080;48.528;8.078;2023-02-01T07:56:02;0.63;;;0.63;;
10082;SDS011;5080;48.528;8.078;2023-02-01T07:58:30;0.70;;;0.70;;
10082;SDS011;5080;48.528;8.078;2023-02-01T08:00:57;0.80;;;0.80;;
10082;SDS011;5080;48.528;8.078;2023-02-01T08:03:41;0.50;;;0.50;;
10082;SDS011;5080;48.528;8.078;2023-02-01T08:06:09;0.40;;;0.40;;
10082;SDS011;5080;48.528;8.078;2023-02-01T08:08:36;0.50;;;0.50;;
10082;SDS011;5080;48.528;8.078;2023-02-01T08:11:04;0.70;;;0.70;;
10082;SDS011;5080;48.528;8.078;2023-02-01T08:13:32;0.70;;;0.70;;
10082;SDS011;5080;48.528;8.078;2023-02-01T08:16:00;0.70;;;0.70;;
10082;SDS011;5080;48.528;8.078;2023-02-01T08:18:28;0.80;;;0.80;;
10082;SDS011;5080;48.528;8.078;2023-02-01T08:20:55;1.10;;;1.00;;
10082;SDS011;5080;48.528;8.078;2023-02-01T08:23:23;0.80;;;0.80;;
10082;SDS011;5080;48.528;8.078;2023-02-01T08:25:50;1.00;;;0.90;;
10082;SDS011;5080;48.528;8.078;2023-02-01T08:28:17;1.00;;;1.00;;
10082;SDS011;5080;48.528;8.078;2023-02-01T08:30:43;0.93;;;0.93;;
10082;SDS011;5080;48.528;8.078;2023-02-01T08:33:10;0.87;;;0.87;;
10082;SDS011;5080;48.528;8.078;2023-02-01T08:35:38;1.00;;;0.90;;
10082;SDS011;5080;48.528;8.078;2023-02-01T08:38:05;1.00;;;1.00;;
10082;SDS011;5080;48.528;8.078;2023-02-01T08:40:33;1.17;;;1.10;;
10082;SDS011;5080;48.528;8.078;2023-02-01T08:43:00;1.17;;;1.10;;
10082;SDS011;5080;48.528;8.078;2023-02-01T08:45:27;1.07;;;1.07;;
10082;SDS011;5080;48.528;8.078;2023-02-01T08:47:55;0.93;;;0.93;;
10082;SDS011;5080;48.528;8.078;2023-02-01T08:50:23;0.93;;;0.93;;
10082;SDS011;5080;48.528;8.078;2023-02-01T08:52:50;1.30;;;1.20;;
10082;SDS011;5080;48.528;8.078;2023-02-01T08:55:18;0.90;;;0.90;;
10082;SDS011;5080;48.528;8.078;2023-02-01T08:57:46;1.20;;;1.20;;
10082;SDS011;5080;48.528;8.078;2023-02-01T09:00:14;1.10;;;1.10;;
10082;SDS011;5080;48.528;8.078;2023-02-01T09:02:43;1.17;;;1.07;;
10082;SDS011;5080;48.528;8.078;2023-02-01T09:05:10;1.00;;;1.00;;
10082;SDS011;5080;48.528;8.078;2023-02-01T09:07:37;1.40;;;1.30;;
10082;SDS011;5080;48.528;8.078;2023-02-01T09:10:04;1.23;;;1.20;;
10082;SDS011;5080;48.528;8.078;2023-02-01T09:12:32;0.90;;;0.90;;
10082;SDS011;5080;48.528;8.078;2023-02-01T09:15:01;1.40;;;1.30;;
10082;SDS011;5080;48.528;8.078;2023-02-01T09:17:31;1.10;;;1.10;;
10082;SDS011;5080;48.528;8.078;2023-02-01T09:19:57;1.40;;;1.30;;
10082;SDS011;5080;48.528;8.078;2023-02-01T09:22:24;1.20;;;1.10;;
10082;SDS011;5080;48.528;8.078;2023-02-01T09:24:51;1.43;;;0.93;;
10082;SDS011;5080;48.528;8.078;2023-02-01T09:27:19;1.00;;;1.00;;
10082;SDS011;5080;48.528;8.078;2023-02-01T09:29:45;1.80;;;1.10;;
10082;SDS011;5080;48.528;8.078;2023-02-01T09:32:18;1.13;;;1.10;;
10082;SDS011;5080;48.528;8.078;2023-02-01T09:34:45;1.03;;;1.03;;
10082;SDS011;5080;48.528;8.078;2023-02-01T09:37:12;1.27;;;1.20;;
10082;SDS011;5080;48.528;8.078;2023-02-01T09:39:39;0.93;;;0.93;;
10082;SDS011;5080;48.528;8.078;2023-02-01T09:42:11;1.20;;;1.10;;
10082;SDS011;5080;48.528;8.078;2023-02-01T09:44:51;1.17;;;1.13;;
10082;SDS011;5080;48.528;8.078;2023-02-01T09:47:34;1.63;;;1.10;;
10082;SDS011;5080;48.528;8.078;2023-02-01T09:50:03;1.10;;;1.10;;
10082;SDS011;5080;48.528;8.078;2023-02-01T09:52:34;1.20;;;1.10;;
10082;SDS011;5080;48.528;8.078;2023-02-01T09:55:05;1.33;;;1.23;;
10082;SDS011;5080;48.528;8.078;2023-02-01T09:57:41;1.17;;;1.17;;
10082;SDS011;5080;48.528;8.078;2023-02-01T10:00:14;1.30;;;1.20;;
10082;SDS011;5080;48.528;8.078;2023-02-01T10:02:47;1.03;;;1.03;;
10082;SDS011;5080;48.528;8.078;2023-02-01T10:05:16;1.33;;;1.23;;
10082;SDS011;5080;48.528;8.078;2023-02-01T10:07:51;1.00;;;1.00;;
10082;SDS011;5080;48.528;8.078;2023-02-01T10:10:28;1.33;;;1.20;;
10082;SDS011;5080;48.528;8.078;2023-02-01T10:16:17;1.03;;;1.03;;
10082;SDS011;5080;48.528;8.078;2023-02-01T10:18:57;1.17;;;1.10;;
10082;SDS011;5080;48.528;8.078;2023-02-01T10:21:40;1.00;;;1.00;;
10082;SDS011;5080;48.528;8.078;2023-02-01T10:24:20;1.47;;;1.00;;
10082;SDS011;5080;48.528;8.078;2023-02-01T10:26:55;1.33;;;1.23;;
10082;SDS011;5080;48.528;8.078;2023-02-01T10:29:29;1.33;;;1.23;;
10082;SDS011;5080;48.528;8.078;2023-02-01T10:32:00;1.20;;;1.10;;
10082;SDS011;5080;48.528;8.078;2023-02-01T10:34:30;0.70;;;0.70;;
10082;SDS011;5080;48.528;8.078;2023-02-01T10:37:00;0.97;;;0.97;;
10082;SDS011;5080;48.528;8.078;2023-02-01T10:39:33;1.27;;;1.20;;
10082;SDS011;5080;48.528;8.078;2023-02-01T10:42:02;0.97;;;0.97;;
10082;SDS011;5080;48.528;8.078;2023-02-01T10:44:30;0.77;;;0.77;;
10082;SDS011;5080;48.528;8.078;2023-02-01T10:47:02;0.97;;;0.90;;
10082;SDS011;5080;48.528;8.078;2023-02-01T10:49:33;0.90;;;0.90;;
10082;SDS011;5080;48.528;8.078;2023-02-01T10:52:05;1.30;;;1.20;;
10082;SDS011;5080;48.528;8.078;2023-02-01T10:54:38;1.10;;;1.10;;
10082;SDS011;5080;48.528;8.078;2023-02-01T10:57:07;0.90;;;0.90;;
10082;SDS011;5080;48.528;8.078;2023-02-01T10:59:34;1.20;;;1.20;;
10082;SDS011;5080;48.528;8.078;2023-02-01T11:02:11;1.23;;;1.10;;
10082;SDS011;5080;48.528;8.078;2023-02-01T11:04:45;0.93;;;0.90;;
10082;SDS011;5080;48.528;8.078;2023-02-01T11:07:13;1.20;;;1.10;;
10082;SDS011;5080;48.528;8.078;2023-02-01T11:09:48;1.00;;;1.00;;
10082;SDS011;5080;48.528;8.078;2023-02-01T11:12:21;1.03;;;0.93;;
10082;SDS011;5080;48.528;8.078;2023-02-01T11:14:56;1.23;;;1.13;;
10082;SDS011;5080;48.528;8.078;2023-02-01T11:17:26;1.00;;;1.00;;
10082;SDS011;5080;48.528;8.078;2023-02-01T11:20:00;1.10;;;1.10;;
10082;SDS011;5080;48.528;8.078;2023-02-01T11:22:28;1.33;;;1.23;;
10082;SDS011;5080;48.528;8.078;2023-02-01T11:24:56;1.30;;;1.20;;
10082;SDS011;5080;48.528;8.078;2023-02-01T11:27:24;1.53;;;1.20;;
10082;SDS011;5080;48.528;8.078;2023-02-01T11:29:52;1.30;;;1.20;;
10082;SDS011;5080;48.528;8.078;2023-02-01T11:32:22;1.00;;;1.00;;
10082;SDS011;5080;48.528;8.078;2023-02-01T11:34:51;1.50;;;1.20;;
10082;SDS011;5080;48.528;8.078;2023-02-01T11:37:23;1.60;;;1.43;;
10082;SDS011;5080;48.528;8.078;2023-02-01T11:39:54;1.40;;;1.30;;
10082;SDS011;5080;48.528;8.078;2023-02-01T11:42:22;1.60;;;1.50;;
10082;SDS011;5080;48.528;8.078;2023-02-01T11:44:50;1.73;;;1.50;;
10082;SDS011;5080;48.528;8.078;2023-02-01T11:47:21;1.40;;;1.30;;
10082;SDS011;5080;48.528;8.078;2023-02-01T11:49:50;1.50;;;1.40;;
10082;SDS011;5080;48.528;8.078;2023-02-01T11:52:24;1.50;;;1.40;;
10082;SDS011;5080;48.528;8.078;2023-02-01T11:55:03;1.20;;;1.20;;
10082;SDS011;5080;48.528;8.078;2023-02-01T11:57:46;1.47;;;1.37;;
10082;SDS011;5080;48.528;8.078;2023-02-01T12:00:32;1.20;;;1.20;;
10082;SDS011;5080;48.528;8.078;2023-02-01T12:03:20;2.10;;;2.00;;
10082;SDS011;5080;48.528;8.078;2023-02-01T12:06:11;1.70;;;1.50;;
10082;SDS011;5080;48.528;8.078;2023-02-01T12:08:56;1.30;;;1.20;;
10082;SDS011;5080;48.528;8.078;2023-02-01T12:11:39;3.40;;;1.53;;
10082;SDS011;5080;48.528;8.078;2023-02-01T12:14:20;1.53;;;1.50;;
10082;SDS011;5080;48.528;8.078;2023-02-01T12:17:11;1.30;;;1.20;;
10082;SDS011;5080;48.528;8.078;2023-02-01T12:20:02;1.30;;;1.30;;
10082;SDS011;5080;48.528;8.078;2023-02-01T12:22:45;1.40;;;1.30;;
10082;SDS011;5080;48.528;8.078;2023-02-01T12:25:33;1.97;;;1.57;;
10082;SDS011;5080;48.528;8.078;2023-02-01T12:28:14;1.50;;;1.40;;
10082;SDS011;5080;48.528;8.078;2023-02-01T12:33:57;1.40;;;1.30;;
10082;SDS011;5080;48.528;8.078;2023-02-01T12:36:45;1.23;;;1.23;;
10082;SDS011;5080;48.528;8.078;2023-02-01T12:39:19;1.60;;;1.50;;
10082;SDS011;5080;48.528;8.078;2023-02-01T12:41:53;1.63;;;1.40;;
10082;SDS011;5080;48.528;8.078;2023-02-01T12:44:29;1.60;;;1.50;;
10082;SDS011;5080;48.528;8.078;2023-02-01T12:47:11;1.53;;;1.43;;
10082;SDS011;5080;48.528;8.078;2023-02-01T12:49:47;1.50;;;1.40;;
10082;SDS011;5080;48.528;8.078;2023-02-01T12:52:20;1.13;;;1.13;;
10082;SDS011;5080;48.528;8.078;2023-02-01T12:54:55;1.40;;;1.30;;
10082;SDS011;5080;48.528;8.078;2023-02-01T12:57:28;1.40;;;1.30;;
10082;SDS011;5080;48.528;8.078;2023-02-01T13:00:02;1.00;;;1.00;;
10082;SDS011;5080;48.528;8.078;2023-02-01T13:02:35;1.50;;;1.40;;
10082;SDS011;5080;48.528;8.078;2023-02-01T13:05:11;1.30;;;1.20;;
10082;SDS011;5080;48.528;8.078;2023-02-01T13:07:43;0.97;;;0.97;;
10082;SDS011;5080;48.528;8.078;2023-02-01T13:10:16;1.20;;;1.20;;
10082;SDS011;5080;48.528;8.078;2023-02-01T13:12:49;1.50;;;1.40;;
10082;SDS011;5080;48.528;8.078;2023-02-01T13:15:21;1.30;;;1.20;;
10082;SDS011;5080;48.528;8.078;2023-02-01T13:17:51;1.13;;;1.13;;
10082;SDS011;5080;48.528;8.078;2023-02-01T13:20:21;1.60;;;1.50;;
10082;SDS011;5080;48.528;8.078;2023-02-01T13:22:54;1.33;;;1.23;;
10082;SDS011;5080;48.528;8.078;2023-02-01T13:25:27;1.40;;;1.30;;
10082;SDS011;5080;48.528;8.078;2023-02-01T13:28:00;1.60;;;1.50;;
10082;SDS011;5080;48.528;8.078;2023-02-01T13:30:34;1.40;;;1.30;;
10082;SDS011;5080;48.528;8.078;2023-02-01T13:33:22;1.60;;;1.50;;
10082;SDS011;5080;48.528;8.078;2023-02-01T13:36:26;1.30;;;1.20;;
10082;SDS011;5080;48.528;8.078;2023-02-01T13:42:13;1.53;;;1.40;;
10082;SDS011;5080;48.528;8.078;2023-02-01T13:44:45;1.47;;;1.30;;
10082;SDS011;5080;48.528;8.078;2023-02-01T13:47:18;1.57;;;1.47;;
10082;SDS011;5080;48.528;8.078;2023-02-01T13:49:50;1.50;;;1.40;;
10082;SDS011;5080;48.528;8.078;2023-02-01T13:52:24;2.17;;;1.60;;
10082;SDS011;5080;48.528;8.078;2023-02-01T13:55:16;1.33;;;1.23;;
10082;SDS011;5080;48.528;8.078;2023-02-01T13:58:00;1.67;;;1.57;;
10082;SDS011;5080;48.528;8.078;2023-02-01T14:00:52;1.63;;;1.53;;
10082;SDS011;5080;48.528;8.078;2023-02-01T14:04:00;1.23;;;1.20;;
10082;SDS011;5080;48.528;8.078;2023-02-01T14:06:37;1.73;;;1.60;;
10082;SDS011;5080;48.528;8.078;2023-02-01T14:09:16;1.60;;;1.50;;
10082;SDS011;5080;48.528;8.078;2023-02-01T14:15:23;1.53;;;1.43;;
10082;SDS011;5080;48.528;8.078;2023-02-01T14:17:52;1.40;;;1.30;;
10082;SDS011;5080;48.528;8.078;2023-02-01T14:23:23;1.87;;;1.50;;
10082;SDS011;5080;48.528;8.078;2023-02-01T14:26:06;1.70;;;1.60;;
10082;SDS011;5080;48.528;8.078;2023-02-01T14:28:40;1.70;;;1.60;;
10082;SDS011;5080;48.528;8.078;2023-02-01T14:31:14;2.23;;;1.90;;
10082;SDS011;5080;48.528;8.078;2023-02-01T14:33:58;1.63;;;1.53;;
10082;SDS011;5080;48.528;8.078;2023-02-01T14:36:38;1.60;;;1.50;;
10082;SDS011;5080;48.528;8.078;2023-02-01T14:39:18;1.70;;;1.60;;
10082;SDS011;5080;48.528;8.078;2023-02-01T14:41:56;1.40;;;1.30;;
10082;SDS011;5080;48.528;8.078;2023-02-01T14:44:29;1.57;;;1.47;;
10082;SDS011;5080;48.528;8.078;2023-02-01T14:50:04;2.50;;;1.50;;
10082;SDS011;5080;48.528;8.078;2023-02-01T14:52:40;1.50;;;1.40;;
10082;SDS011;5080;48.528;8.078;2023-02-01T14:55:11;1.80;;;1.60;;
10082;SDS011;5080;48.528;8.078;2023-02-01T14:57:43;2.10;;;1.70;;
10082;SDS011;5080;48.528;8.078;2023-02-01T15:00:16;1.90;;;1.80;;
10082;SDS011;5080;48.528;8.078;2023-02-01T15:02:47;1.53;;;1.43;;
10082;SDS011;5080;48.528;8.078;2023-02-01T15:05:30;1.63;;;1.53;;
10082;SDS011;5080;48.528;8.078;2023-02-01T15:08:11;1.60;;;1.50;;
10082;SDS011;5080;48.528;8.078;2023-02-01T15:10:42;1.47;;;1.37;;
10082;SDS011;5080;48.528;8.078;2023-02-01T15:13:21;1.47;;;1.37;;
10082;SDS011;5080;48.528;8.078;2023-02-01T15:16:05;1.53;;;1.43;;
10082;SDS011;5080;48.528;8.078;2023-02-01T15:18:36;2.20;;;2.00;;
10082;SDS011;5080;48.528;8.078;2023-02-01T15:21:05;1.43;;;1.33;;
10082;SDS011;5080;48.528;8.078;2023-02-01T15:23:40;1.77;;;1.60;;
10082;SDS011;5080;48.528;8.078;2023-02-01T15:26:07;2.07;;;1.80;;
10082;SDS011;5080;48.528;8.078;2023-02-01T15:28:34;1.50;;;1.40;;
10082;SDS011;5080;48.528;8.078;2023-02-01T15:31:01;1.53;;;1.43;;
10082;SDS011;5080;48.528;8.078;2023-02-01T15:33:30;1.40;;;1.30;;
10082;SDS011;5080;48.528;8.078;2023-02-01T15:36:07;1.50;;;1.40;;
10082;SDS011;5080;48.528;8.078;2023-02-01T15:38:38;1.50;;;1.40;;
10082;SDS011;5080;48.528;8.078;2023-02-01T15:41:07;2.10;;;1.63;;
10082;SDS011;5080;48.528;8.078;2023-02-01T15:43:36;1.83;;;1.53;;
10082;SDS011;5080;48.528;8.078;2023-02-01T15:46:09;1.37;;;1.30;;
10082;SDS011;5080;48.528;8.078;2023-02-01T15:48:39;1.40;;;1.30;;